Time;durP1;ratioP1;P1;durP2;ratioP2;P2;SDS_P1;SDS_P2;PMS_P1;PMS_P2;Temp;Humidity;BMP_temperature;BMP_pressure;BME280_temperature;BME280_humidity;BME280_pressure;Samples;Min_cycle;Max_cycle;Signal;HPM_P1;HPM_P2
2023/09/08 00:02:18;;;;;;;4.50;2.47;;;;;;;;;;5079469;28;20052;-77
2023/09/08 00:04:49;;;;;;;4.40;1.95;;;;;;;;;;5076220;28;20419;-76
2023/09/08 00:07:19;;;;;;;9.85;2.55;;;;;;;;;;5071684;28;20046;-78
2023/09/08 00:09:50;;;;;;;4.63;2.70;;;;;;;;;;5070859;28;20787;-79
2023/09/08 00:12:23;;;;;;;4.63;2.30;;;;;;;;;;5078213;28;20368;-78
2023/09/08 00:14:54;;;;;;;7.35;2.47;;;;;;;;;;5081345;28;20048;-77
2023/09/08 00:17:25;;;;;;;4.38;2.60;;;;;;;;;;5081003;28;20502;-77
2023/09/08 00:19:58;;;;;;;5.75;2.65;;;;;;;;;;5080894;28;20059;-80
2023/09/08 00:22:30;;;;;;;4.32;2.47;;;;;;;;;;5081389;28;20052;-78
2023/09/08 00:25:03;;;;;;;4.55;2.70;;;;;;;;;;5081882;28;20067;-75
2023/09/08 00:27:34;;;;;;;4.18;2.42;;;;;;;;;;5084812;28;20051;-75
2023/09/08 00:30:06;;;;;;;4.47;2.67;;;;;;;;;;5084433;28;20044;-75
2023/09/08 00:32:39;;;;;;;3.30;2.50;;;;;;;;;;5083815;28;20060;-75
2023/09/08 00:35:13;;;;;;;5.10;2.83;;;;;;;;;;5083673;28;20048;-75
2023/09/08 00:37:43;;;;;;;7.75;2.35;;;;;;;;;;5083350;28;20061;-75
2023/09/08 00:40:13;;;;;;;5.20;2.65;;;;;;;;;;5081807;28;20051;-75
2023/09/08 00:42:44;;;;;;;2.42;1.85;;;;;;;;;;5083885;28;20430;-75
2023/09/08 00:45:21;;;;;;;4.65;2.58;;;;;;;;;;5083890;28;20048;-75
2023/09/08 00:47:53;;;;;;;5.40;2.72;;;;;;;;;;5081256;28;20052;-77
2023/09/08 00:50:23;;;;;;;5.13;2.60;;;;;;;;;;5083241;28;20036;-75
2023/09/08 00:52:54;;;;;;;8.82;2.72;;;;;;;;;;5083522;28;20430;-75
2023/09/08 00:55:25;;;;;;;3.90;2.40;;;;;;;;;;5083526;28;20043;-75
2023/09/08 00:57:56;;;;;;;3.95;2.42;;;;;;;;;;5083504;28;20078;-76
2023/09/08 01:00:29;;;;;;;10.32;2.78;;;;;;;;;;5083661;28;20040;-76
2023/09/08 01:03:00;;;;;;;2.92;2.42;;;;;;;;;;5083757;28;20047;-76
2023/09/08 01:05:33;;;;;;;6.20;2.35;;;;;;;;;;5081744;28;20055;-75
2023/09/08 01:08:05;;;;;;;2.97;2.00;;;;;;;;;;5083449;28;20411;-76
2023/09/08 01:10:37;;;;;;;3.85;2.72;;;;;;;;;;5083813;28;20522;-76
2023/09/08 01:13:07;;;;;;;4.78;2.83;;;;;;;;;;5065026;28;20060;-75
2023/09/08 01:15:39;;;;;;;5.10;2.50;;;;;;;;;;5083556;28;20044;-75
2023/09/08 01:18:09;;;;;;;5.10;2.72;;;;;;;;;;5082510;28;20621;-76
2023/09/08 01:21:26;;;;;;;5.93;2.67;;;;;;;;;;5080325;28;20506;-76
2023/09/08 01:24:20;;;;;;;5.93;2.85;;;;;;;;;;4999804;28;20065;-77
2023/09/08 01:26:53;;;;;;;8.07;3.28;;;;;;;;;;5081835;28;20150;-76
2023/09/08 01:29:26;;;;;;;6.65;3.25;;;;;;;;;;5080644;28;20048;-76
2023/09/08 01:31:57;;;;;;;4.53;3.35;;;;;;;;;;5083021;28;20055;-76
2023/09/08 01:34:29;;;;;;;5.50;3.35;;;;;;;;;;5083457;28;20052;-76
2023/09/08 01:37:03;;;;;;;11.23;3.90;;;;;;;;;;5080274;28;20114;-76
2023/09/08 01:39:34;;;;;;;7.35;3.53;;;;;;;;;;5081931;28;20060;-76
2023/09/08 01:42:04;;;;;;;6.85;2.95;;;;;;;;;;5082576;28;20044;-76
2023/09/08 01:44:36;;;;;;;6.78;3.53;;;;;;;;;;5080305;28;20060;-76
2023/09/08 01:47:06;;;;;;;5.28;3.10;;;;;;;;;;5082659;28;20056;-76
2023/09/08 01:49:37;;;;;;;3.90;3.05;;;;;;;;;;5083169;28;20105;-76
2023/09/08 01:52:07;;;;;;;4.72;3.17;;;;;;;;;;5083308;28;20058;-76
2023/09/08 01:54:39;;;;;;;4.68;2.85;;;;;;;;;;5082042;28;20040;-76
2023/09/08 01:57:10;;;;;;;6.63;3.30;;;;;;;;;;5082044;28;20498;-76
2023/09/08 01:59:40;;;;;;;6.60;3.60;;;;;;;;;;5080381;28;20499;-76
2023/09/08 02:02:10;;;;;;;4.50;2.88;;;;;;;;;;5079882;28;20419;-76
2023/09/08 02:04:40;;;;;;;4.80;3.60;;;;;;;;;;5080331;28;20044;-76
2023/09/08 02:07:10;;;;;;;6.38;2.95;;;;;;;;;;5082328;28;20418;-77
2023/09/08 02:09:42;;;;;;;4.30;2.92;;;;;;;;;;5080960;28;20052;-77
2023/09/08 02:12:12;;;;;;;4.55;2.60;;;;;;;;;;5082071;28;20454;-76
2023/09/08 02:14:43;;;;;;;4.43;2.55;;;;;;;;;;5079406;28;20426;-76
2023/09/08 02:17:15;;;;;;;7.20;3.03;;;;;;;;;;5079974;28;20525;-77
2023/09/08 02:19:46;;;;;;;5.68;3.38;;;;;;;;;;5082587;28;20044;-77
2023/09/08 02:22:16;;;;;;;13.20;3.63;;;;;;;;;;5082326;28;20036;-77
2023/09/08 02:24:46;;;;;;;5.63;3.25;;;;;;;;;;5080231;28;20063;-77
2023/09/08 02:27:16;;;;;;;7.13;3.00;;;;;;;;;;5081130;28;20387;-76
2023/09/08 02:29:50;;;;;;;7.43;3.65;;;;;;;;;;5081112;28;20056;-77
2023/09/08 02:32:20;;;;;;;5.63;3.08;;;;;;;;;;5082533;28;20411;-76
2023/09/08 02:34:52;;;;;;;5.93;3.13;;;;;;;;;;5079914;28;20074;-76
2023/09/08 02:37:23;;;;;;;6.65;3.70;;;;;;;;;;5079938;28;20059;-76
2023/09/08 02:39:55;;;;;;;5.55;3.30;;;;;;;;;;5080005;28;20063;-77
2023/09/08 02:42:26;;;;;;;5.72;3.13;;;;;;;;;;5080126;28;20322;-77
2023/09/08 02:44:58;;;;;;;6.68;3.17;;;;;;;;;;5078500;28;20056;-77
2023/09/08 02:47:31;;;;;;;15.18;3.90;;;;;;;;;;5080617;28;20048;-77
2023/09/08 02:50:04;;;;;;;14.15;3.65;;;;;;;;;;5081707;28;20052;-77
2023/09/08 02:52:35;;;;;;;12.43;4.03;;;;;;;;;;5080148;28;20052;-78
2023/09/08 02:55:08;;;;;;;8.90;4.05;;;;;;;;;;5079458;28;20063;-79
2023/09/08 02:57:40;;;;;;;5.05;3.60;;;;;;;;;;5081957;28;20055;-77
2023/09/08 03:00:11;;;;;;;4.97;3.70;;;;;;;;;;5080132;28;20060;-77
2023/09/08 03:02:42;;;;;;;5.30;4.13;;;;;;;;;;5079112;28;20056;-76
2023/09/08 03:05:13;;;;;;;5.82;4.05;;;;;;;;;;5080194;28;20059;-77
2023/09/08 03:07:48;;;;;;;7.57;4.05;;;;;;;;;;5081520;28;20455;-77
2023/09/08 03:10:19;;;;;;;8.15;4.20;;;;;;;;;;5081722;28;20052;-77
2023/09/08 03:12:49;;;;;;;8.32;4.20;;;;;;;;;;5081997;28;20040;-77
2023/09/08 03:15:20;;;;;;;5.57;4.03;;;;;;;;;;5081705;28;20052;-77
2023/09/08 03:17:50;;;;;;;8.57;4.03;;;;;;;;;;5081030;28;20051;-77
2023/09/08 03:20:22;;;;;;;6.20;4.47;;;;;;;;;;5081049;28;20064;-77
2023/09/08 03:22:53;;;;;;;9.48;4.03;;;;;;;;;;5084583;28;20063;-76
2023/09/08 03:25:23;;;;;;;9.07;3.65;;;;;;;;;;5085037;28;20415;-77
2023/09/08 03:27:53;;;;;;;8.05;4.15;;;;;;;;;;5084667;28;20051;-76
2023/09/08 03:30:24;;;;;;;7.90;4.10;;;;;;;;;;5083572;28;20044;-76
2023/09/08 03:32:54;;;;;;;7.20;4.20;;;;;;;;;;5083802;28;20426;-77
2023/09/08 03:35:26;;;;;;;8.38;3.70;;;;;;;;;;5085233;28;20388;-77
2023/09/08 03:37:56;;;;;;;6.60;4.40;;;;;;;;;;5084793;28;20059;-76
2023/09/08 03:40:26;;;;;;;10.00;4.60;;;;;;;;;;5085835;28;20055;-76
2023/09/08 03:42:58;;;;;;;9.10;3.58;;;;;;;;;;5083951;28;20052;-76
2023/09/08 03:45:28;;;;;;;5.78;3.35;;;;;;;;;;5083666;28;20060;-76
2023/09/08 03:47:58;;;;;;;6.25;3.88;;;;;;;;;;5066450;28;20052;-76
2023/09/08 03:50:30;;;;;;;9.50;3.75;;;;;;;;;;5083417;28;20427;-76
2023/09/08 03:53:01;;;;;;;9.35;4.30;;;;;;;;;;5083099;28;20059;-77
2023/09/08 03:55:34;;;;;;;19.25;3.88;;;;;;;;;;5082752;28;20075;-76
2023/09/08 03:58:04;;;;;;;7.63;4.10;;;;;;;;;;5082602;28;20066;-76
2023/09/08 04:00:35;;;;;;;10.23;4.63;;;;;;;;;;5082684;28;20066;-76
2023/09/08 04:03:06;;;;;;;9.70;4.15;;;;;;;;;;5082865;28;20052;-78
2023/09/08 04:05:37;;;;;;;10.05;4.88;;;;;;;;;;5082998;28;20055;-77
2023/09/08 04:08:08;;;;;;;10.98;4.38;;;;;;;;;;5082880;28;20052;-76
2023/09/08 04:10:37;;;;;;;10.60;4.40;;;;;;;;;;5082903;28;20048;-77
2023/09/08 04:13:08;;;;;;;8.32;4.15;;;;;;;;;;5083819;28;20059;-75
2023/09/08 04:15:40;;;;;;;8.10;4.28;;;;;;;;;;5082691;28;20052;-76
2023/09/08 04:18:11;;;;;;;7.45;4.93;;;;;;;;;;5084522;28;20510;-76
2023/09/08 04:20:41;;;;;;;9.85;5.32;;;;;;;;;;5083246;28;20048;-76
2023/09/08 04:23:11;;;;;;;16.23;4.85;;;;;;;;;;5082463;28;20052;-77
2023/09/08 04:25:42;;;;;;;14.88;5.15;;;;;;;;;;5082626;28;20485;-78
2023/09/08 04:28:12;;;;;;;11.75;5.13;;;;;;;;;;5083733;28;20051;-77
2023/09/08 04:30:43;;;;;;;16.88;5.05;;;;;;;;;;5082847;28;20537;-77
2023/09/08 04:33:13;;;;;;;13.32;4.70;;;;;;;;;;5082526;28;20502;-77
2023/09/08 04:35:44;;;;;;;14.10;4.43;;;;;;;;;;5083247;28;20517;-77
2023/09/08 04:38:15;;;;;;;7.53;4.47;;;;;;;;;;5082501;28;20442;-76
2023/09/08 04:40:46;;;;;;;9.95;3.78;;;;;;;;;;5082192;28;20052;-76
2023/09/08 04:43:19;;;;;;;9.30;4.22;;;;;;;;;;5082386;28;20052;-77
2023/09/08 04:45:50;;;;;;;12.73;4.10;;;;;;;;;;5083146;28;20048;-77
2023/09/08 04:48:22;;;;;;;11.68;4.43;;;;;;;;;;5082072;28;20048;-77
2023/09/08 04:50:53;;;;;;;7.18;4.43;;;;;;;;;;5081204;28;20063;-76
2023/09/08 04:53:23;;;;;;;8.15;3.92;;;;;;;;;;5083880;28;20052;-76
2023/09/08 04:55:53;;;;;;;7.45;4.45;;;;;;;;;;5081557;28;20066;-76
2023/09/08 04:58:25;;;;;;;4.43;3.35;;;;;;;;;;5081696;28;20418;-76
2023/09/08 05:00:56;;;;;;;7.10;3.90;;;;;;;;;;5081899;28;20063;-76
2023/09/08 05:03:27;;;;;;;6.32;4.07;;;;;;;;;;5083128;28;20517;-76
2023/09/08 05:05:58;;;;;;;5.20;3.60;;;;;;;;;;5082213;28;20062;-76
2023/09/08 05:08:29;;;;;;;10.02;3.60;;;;;;;;;;5082421;28;20052;-76
2023/09/08 05:10:59;;;;;;;5.70;3.97;;;;;;;;;;5082945;28;20047;-76
2023/09/08 05:13:32;;;;;;;5.03;3.00;;;;;;;;;;5080765;28;20051;-76
2023/09/08 05:16:11;;;;;;;6.75;3.60;;;;;;;;;;5080506;28;20048;-76
2023/09/08 05:18:47;;;;;;;8.85;3.58;;;;;;;;;;5081707;28;20059;-76
2023/09/08 05:21:18;;;;;;;3.53;2.80;;;;;;;;;;5081410;28;20063;-75
2023/09/08 05:23:50;;;;;;;4.78;2.35;;;;;;;;;;5083048;28;20836;-75
2023/09/08 05:26:20;;;;;;;3.38;2.95;;;;;;;;;;5080513;28;20048;-76
2023/09/08 05:28:50;;;;;;;4.60;2.65;;;;;;;;;;5080737;28;20052;-76
2023/09/08 05:31:20;;;;;;;8.18;2.75;;;;;;;;;;5063931;28;20040;-75
2023/09/08 05:33:51;;;;;;;5.68;3.20;;;;;;;;;;5082558;28;20051;-75
2023/09/08 05:36:22;;;;;;;6.28;3.20;;;;;;;;;;5081400;28;20048;-75
2023/09/08 05:38:53;;;;;;;6.75;3.40;;;;;;;;;;5080291;28;20048;-75
2023/09/08 05:41:23;;;;;;;6.97;3.20;;;;;;;;;;5083065;28;20403;-76
2023/09/08 05:43:54;;;;;;;5.65;3.60;;;;;;;;;;5081769;28;20044;-76
2023/09/08 05:46:25;;;;;;;6.40;4.07;;;;;;;;;;5081487;28;20405;-75
2023/09/08 05:48:55;;;;;;;7.32;3.63;;;;;;;;;;5080805;28;20468;-76
2023/09/08 05:51:26;;;;;;;9.48;3.80;;;;;;;;;;5081988;28;20525;-76
2023/09/08 05:53:57;;;;;;;5.88;3.55;;;;;;;;;;5080660;28;20491;-76
2023/09/08 05:56:34;;;;;;;5.75;3.28;;;;;;;;;;5080578;28;20056;-76
2023/09/08 05:59:05;;;;;;;5.85;3.40;;;;;;;;;;5080663;28;20533;-76
2023/09/08 06:01:35;;;;;;;3.95;3.00;;;;;;;;;;5080286;28;20063;-76
2023/09/08 06:04:08;;;;;;;9.65;3.03;;;;;;;;;;5080870;28;20048;-76
2023/09/08 06:06:39;;;;;;;4.90;2.35;;;;;;;;;;5080787;28;20437;-75
2023/09/08 06:09:12;;;;;;;3.40;2.10;;;;;;;;;;5081807;28;20054;-75
2023/09/08 06:11:42;;;;;;;3.05;2.00;;;;;;;;;;5081714;28;20530;-75
2023/09/08 06:14:12;;;;;;;4.20;1.92;;;;;;;;;;5083168;28;20373;-75
2023/09/08 06:16:47;;;;;;;2.80;1.88;;;;;;;;;;5080546;28;20499;-75
2023/09/08 06:19:18;;;;;;;3.20;1.45;;;;;;;;;;5080292;28;20051;-75
2023/09/08 06:21:48;;;;;;;2.50;1.50;;;;;;;;;;5079940;28;20403;-75
2023/09/08 06:24:20;;;;;;;2.05;1.38;;;;;;;;;;5079737;28;20526;-76
2023/09/08 06:26:50;;;;;;;3.33;1.50;;;;;;;;;;5081667;28;20478;-75
2023/09/08 06:29:21;;;;;;;1.30;0.93;;;;;;;;;;5080438;28;20052;-75
2023/09/08 06:31:51;;;;;;;1.80;1.20;;;;;;;;;;5081367;28;20422;-75
2023/09/08 06:34:22;;;;;;;2.83;1.33;;;;;;;;;;5080668;28;20044;-76
2023/09/08 06:36:53;;;;;;;2.03;1.20;;;;;;;;;;5079940;28;20047;-75
2023/09/08 06:39:26;;;;;;;1.95;1.17;;;;;;;;;;5079813;28;20063;-76
2023/09/08 06:41:57;;;;;;;1.35;1.10;;;;;;;;;;5063848;28;20542;-75
2023/09/08 06:44:27;;;;;;;2.75;1.20;;;;;;;;;;5079976;28;20058;-75
2023/09/08 06:46:59;;;;;;;1.67;1.17;;;;;;;;;;5079621;28;20085;-75
2023/09/08 06:49:29;;;;;;;1.40;1.30;;;;;;;;;;5082286;28;20075;-76
2023/09/08 06:51:59;;;;;;;1.30;1.20;;;;;;;;;;5080596;28;20536;-75
2023/09/08 06:54:30;;;;;;;2.45;1.20;;;;;;;;;;5083234;28;20506;-75
2023/09/08 06:57:01;;;;;;;1.88;1.00;;;;;;;;;;5084121;28;20052;-75
2023/09/08 06:59:32;;;;;;;1.52;1.10;;;;;;;;;;5086324;28;20048;-75
2023/09/08 07:02:04;;;;;;;1.60;1.30;;;;;;;;;;5085436;28;20059;-74
2023/09/08 07:04:35;;;;;;;1.92;1.33;;;;;;;;;;5068505;28;20054;-74
2023/09/08 07:07:07;;;;;;;2.10;1.10;;;;;;;;;;5085254;28;20279;-74
2023/09/08 07:09:39;;;;;;;1.45;1.05;;;;;;;;;;5084191;28;20048;-74
2023/09/08 07:12:10;;;;;;;1.70;1.13;;;;;;;;;;5086002;28;20044;-74
2023/09/08 07:14:39;;;;;;;2.05;1.25;;;;;;;;;;5083307;28;20063;-74
2023/09/08 07:17:11;;;;;;;5.05;1.25;;;;;;;;;;5083923;28;20052;-73
2023/09/08 07:19:42;;;;;;;1.33;1.10;;;;;;;;;;5085103;28;20051;-74
2023/09/08 07:22:12;;;;;;;2.03;1.40;;;;;;;;;;5086164;28;20414;-74
2023/09/08 07:24:44;;;;;;;2.50;1.15;;;;;;;;;;5085350;28;20052;-74
2023/09/08 07:27:20;;;;;;;7.22;1.30;;;;;;;;;;5082793;28;20055;-75
2023/09/08 07:29:51;;;;;;;2.17;1.17;;;;;;;;;;5083293;28;20059;-74
2023/09/08 07:32:25;;;;;;;4.15;1.25;;;;;;;;;;5083629;28;20151;-75
2023/09/08 07:34:55;;;;;;;1.52;1.05;;;;;;;;;;5084958;28;20044;-75
2023/09/08 07:37:26;;;;;;;2.00;1.10;;;;;;;;;;5083741;28;20354;-74
2023/09/08 07:39:59;;;;;;;2.55;1.25;;;;;;;;;;5083211;28;20052;-75
2023/09/08 07:42:29;;;;;;;3.13;1.50;;;;;;;;;;5084967;28;20044;-76
2023/09/08 07:44:59;;;;;;;1.88;1.27;;;;;;;;;;5084574;28;20055;-75
2023/09/08 07:47:30;;;;;;;1.48;1.27;;;;;;;;;;5084606;28;20091;-75
2023/09/08 07:50:25;;;;;;;2.30;1.60;;;;;;;;;;5085176;28;20047;-75
2023/09/08 07:52:57;;;;;;;2.10;1.35;;;;;;;;;;5085897;28;20059;-75
2023/09/08 07:55:28;;;;;;;3.63;1.40;;;;;;;;;;5084709;28;20052;-75
2023/09/08 07:58:03;;;;;;;2.15;1.10;;;;;;;;;;5085025;28;20678;-76
2023/09/08 08:00:34;;;;;;;1.60;1.40;;;;;;;;;;5084405;28;20059;-76
2023/09/08 08:03:06;;;;;;;2.30;1.30;;;;;;;;;;5084198;28;20530;-76
2023/09/08 08:05:36;;;;;;;2.10;1.50;;;;;;;;;;5083577;28;20082;-74
2023/09/08 08:08:09;;;;;;;2.15;1.23;;;;;;;;;;5083221;28;20060;-75
2023/09/08 08:10:42;;;;;;;2.13;1.25;;;;;;;;;;5084149;28;20083;-75
2023/09/08 08:13:13;;;;;;;1.13;0.80;;;;;;;;;;5084167;28;20534;-74
2023/09/08 08:15:47;;;;;;;2.15;1.15;;;;;;;;;;5084320;28;20048;-74
2023/09/08 08:18:17;;;;;;;2.22;1.10;;;;;;;;;;5084269;28;20056;-76
2023/09/08 08:20:48;;;;;;;1.60;1.15;;;;;;;;;;5084169;28;20491;-75
2023/09/08 08:23:19;;;;;;;1.17;1.00;;;;;;;;;;5084258;28;20052;-75
2023/09/08 08:25:50;;;;;;;1.38;1.10;;;;;;;;;;5084678;28;20040;-76
2023/09/08 08:28:20;;;;;;;1.17;1.00;;;;;;;;;;5084930;28;20048;-75
2023/09/08 08:30:52;;;;;;;1.42;1.10;;;;;;;;;;5084012;28;20542;-75
2023/09/08 08:33:25;;;;;;;1.08;0.90;;;;;;;;;;5085130;28;20529;-76
2023/09/08 08:35:56;;;;;;;2.70;1.48;;;;;;;;;;5083244;28;20432;-74
2023/09/08 08:38:26;;;;;;;1.92;1.25;;;;;;;;;;5084528;28;20052;-75
2023/09/08 08:41:04;;;;;;;3.83;1.13;;;;;;;;;;5083988;28;20558;-75
2023/09/08 08:43:35;;;;;;;1.88;1.20;;;;;;;;;;5083100;28;20561;-76
2023/09/08 08:46:05;;;;;;;2.28;1.27;;;;;;;;;;5083763;28;20052;-78
2023/09/08 08:48:37;;;;;;;3.60;1.40;;;;;;;;;;5083203;28;20503;-75
2023/09/08 08:51:11;;;;;;;1.45;1.30;;;;;;;;;;5084197;28;20475;-74
2023/09/08 08:53:42;;;;;;;1.33;0.90;;;;;;;;;;5084404;28;20410;-76
2023/09/08 08:56:12;;;;;;;3.53;1.38;;;;;;;;;;5083419;28;20534;-76
2023/09/08 08:58:43;;;;;;;1.67;1.00;;;;;;;;;;5083726;28;20051;-74
2023/09/08 09:01:19;;;;;;;2.10;1.15;;;;;;;;;;5083335;28;20442;-78
2023/09/08 09:03:52;;;;;;;2.08;1.35;;;;;;;;;;5081258;28;20419;-78
2023/09/08 09:06:23;;;;;;;1.52;1.30;;;;;;;;;;5083244;28;20411;-76
2023/09/08 09:08:53;;;;;;;3.10;1.17;;;;;;;;;;5082958;28;20424;-77
2023/09/08 09:11:23;;;;;;;2.42;1.20;;;;;;;;;;5083153;28;20048;-76
2023/09/08 09:13:54;;;;;;;2.47;1.40;;;;;;;;;;5084477;28;20060;-78
2023/09/08 09:16:25;;;;;;;1.75;1.25;;;;;;;;;;5083672;28;20047;-77
2023/09/08 09:19:00;;;;;;;3.13;1.30;;;;;;;;;;5082116;28;20047;-76
2023/09/08 09:21:47;;;;;;;1.92;1.55;;;;;;;;;;5083721;28;20044;-76
2023/09/08 09:24:54;;;;;;;2.65;1.15;;;;;;;;;;5083329;28;20056;-76
2023/09/08 09:27:25;;;;;;;1.90;1.40;;;;;;;;;;5081118;28;20059;-75
2023/09/08 09:29:55;;;;;;;1.80;0.95;;;;;;;;;;5083131;28;20047;-76
2023/09/08 09:32:27;;;;;;;2.65;1.25;;;;;;;;;;5082610;28;20134;-77
2023/09/08 09:35:00;;;;;;;1.40;1.13;;;;;;;;;;5082904;28;20043;-77
2023/09/08 09:37:31;;;;;;;1.30;1.20;;;;;;;;;;5083241;28;20784;-76
2023/09/08 09:40:04;;;;;;;2.17;1.40;;;;;;;;;;5081200;28;20052;-76
2023/09/08 09:42:38;;;;;;;5.32;1.55;;;;;;;;;;5082222;28;20529;-76
2023/09/08 09:45:10;;;;;;;3.03;1.38;;;;;;;;;;5080912;28;20060;-76
2023/09/08 09:47:40;;;;;;;2.05;1.27;;;;;;;;;;5082653;28;20059;-75
2023/09/08 09:50:12;;;;;;;2.75;1.10;;;;;;;;;;5083410;28;20047;-76
2023/09/08 09:52:48;;;;;;;2.53;1.67;;;;;;;;;;5082822;28;20043;-76
2023/09/08 09:55:19;;;;;;;3.40;1.25;;;;;;;;;;5082345;28;20048;-76
2023/09/08 09:57:51;;;;;;;2.30;1.15;;;;;;;;;;5082524;28;20059;-77
2023/09/08 10:00:21;;;;;;;4.35;1.30;;;;;;;;;;5082598;28;20048;-80
2023/09/08 10:02:54;;;;;;;2.30;1.50;;;;;;;;;;5080764;28;20047;-76
2023/09/08 10:05:25;;;;;;;6.10;1.48;;;;;;;;;;5081019;28;20407;-76
2023/09/08 10:07:56;;;;;;;2.80;1.40;;;;;;;;;;5082671;28;20059;-78
2023/09/08 10:10:30;;;;;;;1.55;1.35;;;;;;;;;;5082002;28;20048;-76
2023/09/08 10:13:09;;;;;;;4.93;1.70;;;;;;;;;;5082033;28;20613;-76
2023/09/08 10:15:42;;;;;;;2.33;1.30;;;;;;;;;;5082120;28;20043;-78
2023/09/08 10:18:16;;;;;;;3.63;1.45;;;;;;;;;;5082497;28;20044;-79
2023/09/08 10:20:51;;;;;;;3.45;1.10;;;;;;;;;;5082378;28;20055;-75
2023/09/08 10:23:42;;;;;;;4.68;1.50;;;;;;;;;;5082709;28;20059;-75
2023/09/08 10:26:17;;;;;;;5.05;1.40;;;;;;;;;;5082150;28;20052;-76
2023/09/08 10:28:48;;;;;;;2.60;1.30;;;;;;;;;;5081781;28;20582;-75
2023/09/08 10:31:18;;;;;;;1.50;1.10;;;;;;;;;;5082431;28;20062;-76
2023/09/08 10:33:49;;;;;;;4.15;1.40;;;;;;;;;;5082483;28;20051;-75
2023/09/08 10:36:19;;;;;;;2.90;1.42;;;;;;;;;;5081657;28;20499;-75
2023/09/08 10:38:51;;;;;;;3.13;2.17;;;;;;;;;;5081401;28;20048;-75
2023/09/08 10:41:23;;;;;;;2.33;1.13;;;;;;;;;;5082119;28;20051;-75
2023/09/08 10:44:00;;;;;;;2.05;1.35;;;;;;;;;;5081251;28;20422;-76
2023/09/08 10:46:32;;;;;;;2.45;1.63;;;;;;;;;;5081846;28;20063;-76
2023/09/08 10:49:07;;;;;;;2.67;1.42;;;;;;;;;;5080348;28;20048;-76
2023/09/08 10:51:39;;;;;;;2.78;1.10;;;;;;;;;;5079884;28;20060;-82
2023/09/08 10:54:11;;;;;;;2.67;1.67;;;;;;;;;;5082138;28;20056;-77
2023/09/08 10:56:56;;;;;;;3.97;1.60;;;;;;;;;;5082216;28;20052;-76
2023/09/08 10:59:29;;;;;;;3.97;1.80;;;;;;;;;;5081626;28;20059;-85
2023/09/08 11:02:04;;;;;;;2.65;1.83;;;;;;;;;;5081516;28;20052;-75
2023/09/08 11:04:42;;;;;;;3.45;1.80;;;;;;;;;;5081392;28;20059;-76
2023/09/08 11:07:13;;;;;;;2.88;1.35;;;;;;;;;;5082106;28;20383;-75
2023/09/08 11:09:43;;;;;;;2.17;1.70;;;;;;;;;;5080233;28;20066;-76
2023/09/08 11:12:17;;;;;;;2.05;1.52;;;;;;;;;;5081554;28;20153;-79
2023/09/08 11:14:48;;;;;;;3.10;1.77;;;;;;;;;;5079662;28;20624;-76
2023/09/08 11:17:18;;;;;;;3.47;1.55;;;;;;;;;;5082044;28;20511;-76
2023/09/08 11:19:50;;;;;;;2.30;1.50;;;;;;;;;;5079720;28;20067;-75
2023/09/08 11:22:27;;;;;;;2.55;1.63;;;;;;;;;;5078382;28;20427;-77
2023/09/08 11:24:58;;;;;;;1.98;1.42;;;;;;;;;;5078587;28;20052;-75
2023/09/08 11:27:29;;;;;;;4.57;1.52;;;;;;;;;;5081261;28;20059;-73
2023/09/08 11:30:00;;;;;;;2.45;1.80;;;;;;;;;;5081595;28;20052;-75
2023/09/08 11:32:35;;;;;;;2.40;1.25;;;;;;;;;;5081426;28;20487;-75
2023/09/08 11:35:08;;;;;;;1.50;1.40;;;;;;;;;;5081028;28;20051;-77
2023/09/08 11:37:42;;;;;;;3.33;1.80;;;;;;;;;;5080811;28;20059;-75
2023/09/08 11:40:15;;;;;;;4.55;1.73;;;;;;;;;;5081766;28;20051;-75
2023/09/08 11:42:45;;;;;;;3.53;2.03;;;;;;;;;;5084937;28;20052;-75
2023/09/08 11:45:21;;;;;;;3.83;2.10;;;;;;;;;;5085781;28;20044;-75
2023/09/08 11:47:53;;;;;;;5.03;2.00;;;;;;;;;;5084587;28;20052;-75
2023/09/08 11:50:24;;;;;;;2.38;1.80;;;;;;;;;;5084808;28;20525;-75
2023/09/08 11:52:57;;;;;;;2.42;1.70;;;;;;;;;;5084276;28;20636;-75
2023/09/08 11:55:29;;;;;;;3.15;1.85;;;;;;;;;;5083394;28;20044;-74
2023/09/08 11:58:02;;;;;;;2.65;1.92;;;;;;;;;;5084128;28;20051;-74
2023/09/08 12:00:33;;;;;;;3.35;1.95;;;;;;;;;;5083046;28;20056;-75
2023/09/08 12:03:17;;;;;;;3.70;2.20;;;;;;;;;;5084204;28;20058;-74
2023/09/08 12:05:53;;;;;;;3.45;2.15;;;;;;;;;;5082093;28;20056;-76
2023/09/08 12:08:28;;;;;;;2.92;1.90;;;;;;;;;;5083986;28;20066;-74
2023/09/08 12:11:00;;;;;;;3.42;1.55;;;;;;;;;;5084469;28;20056;-74
2023/09/08 12:13:30;;;;;;;2.83;1.70;;;;;;;;;;5084543;28;20056;-74
2023/09/08 12:16:01;;;;;;;3.35;1.95;;;;;;;;;;5083215;28;20644;-73
2023/09/08 12:18:39;;;;;;;4.30;1.80;;;;;;;;;;5084604;28;20051;-74
2023/09/08 12:21:10;;;;;;;2.60;1.88;;;;;;;;;;5082179;28;21291;-76
2023/09/08 12:23:50;;;;;;;8.90;2.00;;;;;;;;;;5084337;28;20059;-79
2023/09/08 12:26:23;;;;;;;4.03;1.65;;;;;;;;;;5084281;28;20057;-74
2023/09/08 12:28:54;;;;;;;10.18;2.25;;;;;;;;;;5082137;28;20052;-74
2023/09/08 12:31:25;;;;;;;2.10;1.83;;;;;;;;;;5082193;28;20082;-75
2023/09/08 12:33:56;;;;;;;2.20;1.98;;;;;;;;;;5082798;28;20526;-75
2023/09/08 12:36:28;;;;;;;4.47;2.40;;;;;;;;;;5083719;28;20054;-76
2023/09/08 12:38:58;;;;;;;8.27;4.10;;;;;;;;;;5084159;28;20048;-74
2023/09/08 12:41:29;;;;;;;6.60;2.17;;;;;;;;;;5084213;28;20044;-74
2023/09/08 12:43:59;;;;;;;2.78;1.70;;;;;;;;;;5084028;28;20040;-75
2023/09/08 12:46:31;;;;;;;3.47;1.63;;;;;;;;;;5083704;28;20404;-74
2023/09/08 12:49:02;;;;;;;5.20;1.88;;;;;;;;;;5084131;28;20048;-75
2023/09/08 12:51:32;;;;;;;4.35;2.17;;;;;;;;;;5087414;28;20044;-75
2023/09/08 12:54:02;;;;;;;4.40;2.28;;;;;;;;;;5083816;28;20048;-76
2023/09/08 12:56:33;;;;;;;16.20;4.40;;;;;;;;;;5083620;28;20062;-75
2023/09/08 12:59:03;;;;;;;5.15;2.40;;;;;;;;;;5083040;28;20437;-75
2023/09/08 13:01:34;;;;;;;6.70;2.10;;;;;;;;;;5083557;28;20059;-75
2023/09/08 13:04:04;;;;;;;2.67;2.10;;;;;;;;;;5084467;28;20059;-75
2023/09/08 13:06:35;;;;;;;3.47;1.80;;;;;;;;;;5065981;28;20048;-75
2023/09/08 13:09:08;;;;;;;2.65;1.40;;;;;;;;;;5083172;28;20515;-75
2023/09/08 13:11:38;;;;;;;3.17;1.90;;;;;;;;;;5082934;28;20048;-74
2023/09/08 13:14:08;;;;;;;3.25;1.98;;;;;;;;;;5080351;28;20083;-75
2023/09/08 13:16:39;;;;;;;2.30;1.65;;;;;;;;;;5082894;28;20537;-75
2023/09/08 13:19:10;;;;;;;4.80;1.75;;;;;;;;;;5082695;28;20039;-74
2023/09/08 13:21:41;;;;;;;5.55;2.17;;;;;;;;;;5065604;28;20426;-74
2023/09/08 13:24:12;;;;;;;7.13;2.55;;;;;;;;;;5082657;28;20071;-75
2023/09/08 13:26:44;;;;;;;7.57;2.78;;;;;;;;;;5082908;28;20414;-75
2023/09/08 13:29:18;;;;;;;5.93;2.65;;;;;;;;;;5082542;28;20426;-75
2023/09/08 13:31:49;;;;;;;4.75;2.15;;;;;;;;;;5082849;28;20048;-75
2023/09/08 13:34:19;;;;;;;5.03;2.15;;;;;;;;;;5082795;28;20052;-75
2023/09/08 13:36:50;;;;;;;2.88;1.80;;;;;;;;;;5083135;28;20055;-75
2023/09/08 13:39:20;;;;;;;3.15;2.05;;;;;;;;;;5083526;28;20462;-75
2023/09/08 13:41:55;;;;;;;2.92;1.70;;;;;;;;;;5080810;28;20048;-75
2023/09/08 13:44:28;;;;;;;2.63;1.67;;;;;;;;;;5080704;28;20044;-75
2023/09/08 13:46:59;;;;;;;4.72;2.65;;;;;;;;;;5082298;28;20053;-75
2023/09/08 13:49:30;;;;;;;2.28;1.70;;;;;;;;;;5082568;28;20414;-75
2023/09/08 13:52:02;;;;;;;5.63;2.05;;;;;;;;;;5082131;28;20052;-74
2023/09/08 13:54:34;;;;;;;7.18;1.92;;;;;;;;;;5082311;28;20052;-79
2023/09/08 13:57:09;;;;;;;5.15;2.10;;;;;;;;;;5082424;28;20056;-80
2023/09/08 13:59:43;;;;;;;2.33;1.90;;;;;;;;;;5082384;28;20050;-75
2023/09/08 14:02:17;;;;;;;2.58;1.75;;;;;;;;;;5082704;28;20521;-75
2023/09/08 14:04:56;;;;;;;3.35;1.60;;;;;;;;;;5082085;28;20044;-75
2023/09/08 14:07:32;;;;;;;2.70;1.55;;;;;;;;;;5082985;28;20412;-74
2023/09/08 14:10:13;;;;;;;3.72;2.13;;;;;;;;;;5082335;28;20048;-74
2023/09/08 14:12:57;;;;;;;2.65;2.05;;;;;;;;;;5082371;28;20613;-74
2023/09/08 14:15:27;;;;;;;4.65;2.40;;;;;;;;;;5081977;28;20047;-75
2023/09/08 14:17:57;;;;;;;5.72;2.17;;;;;;;;;;5081912;28;20505;-74
2023/09/08 14:20:31;;;;;;;3.90;2.00;;;;;;;;;;5081448;28;20055;-75
2023/09/08 14:23:02;;;;;;;7.75;2.30;;;;;;;;;;5081942;28;20080;-74
2023/09/08 14:25:33;;;;;;;3.63;1.90;;;;;;;;;;5064192;28;20060;-80
2023/09/08 14:28:04;;;;;;;3.55;1.90;;;;;;;;;;5081447;28;20052;-74
2023/09/08 14:30:36;;;;;;;2.97;1.98;;;;;;;;;;5081633;28;20055;-76
2023/09/08 14:33:06;;;;;;;3.28;2.00;;;;;;;;;;5081967;28;20048;-77
2023/09/08 14:35:43;;;;;;;3.17;2.17;;;;;;;;;;5081206;28;20048;-73
2023/09/08 14:38:16;;;;;;;13.88;3.28;;;;;;;;;;5081560;28;20044;-75
2023/09/08 14:40:58;;;;;;;6.75;2.00;;;;;;;;;;5081756;28;20044;-73
2023/09/08 14:43:29;;;;;;;17.95;7.97;;;;;;;;;;5082047;28;20822;-75
2023/09/08 14:46:02;;;;;;;4.38;2.88;;;;;;;;;;5081860;28;20590;-73
2023/09/08 14:48:35;;;;;;;7.07;2.30;;;;;;;;;;5080234;28;20040;-76
2023/09/08 14:51:07;;;;;;;5.95;4.43;;;;;;;;;;5081724;28;20055;-76
2023/09/08 14:53:40;;;;;;;4.68;2.70;;;;;;;;;;5080692;28;20052;-77
2023/09/08 14:56:11;;;;;;;4.45;3.45;;;;;;;;;;5082544;28;20517;-76
2023/09/08 14:58:41;;;;;;;2.85;2.03;;;;;;;;;;5080974;28;20044;-76
2023/09/08 15:01:16;;;;;;;2.97;1.77;;;;;;;;;;5081477;28;20055;-74
2023/09/08 15:03:46;;;;;;;2.30;1.80;;;;;;;;;;5080197;28;20052;-74
2023/09/08 15:06:16;;;;;;;3.90;2.05;;;;;;;;;;5081264;28;20048;-73
2023/09/08 15:08:48;;;;;;;2.33;1.77;;;;;;;;;;5081495;28;20052;-75
2023/09/08 15:11:20;;;;;;;3.67;2.08;;;;;;;;;;5081228;28;20044;-73
2023/09/08 15:13:50;;;;;;;7.43;2.40;;;;;;;;;;5081181;28;20051;-76